Terminal Aerodrome Forecast
Issued by NWS Twin Cities, MN

Home | Current Version | Previous Version | Text Only | Print | Product List | Glossary On
Versions: 1 2 3 4 5 6 7 8 9 10 11 12
000
FTUS43 KMPX 120500
TAFSTC
TAF
KSTC 120520Z 1206/1306 33005KT P6SM SCT060 BKN080
     FM121200 31006KT P6SM BKN060
     FM130000 VRB02KT P6SM SCT200=

USA.gov is the U.S. government's official web portal to all federal, state and local government web resources and services.